Austin, Mississippi
Current Conditions -  °F | °C
As of 12:55 AM on Saturday 25 Oct 2014 (Local Time) from KUTA Reporting Station
Clear Clear  
Wind Chill: 12°   Ceiling: Unl
Heat Index: 12°   Visibility: 7mi
Dew Point: 11°   Wind: 3mph
Humidity: 94%   Direction: 160°SSE
Pressure: 30.1"   Gusts: NA
Location:  34.6827°N, 90.3615°W
Report Text: KUTA 250555Z AUTO 16003KT 7SM CLR 12/11 A3010 RMK AO2
Loading
Personal Weather Stations






























Interactive Weather Map
Tropical Storm Tracking
New forecast layout! Learn more

10-Day Weather Forecast

Advertisements
Track Severe Weather on mobile